Have a Safe July 4th! 

Flight Track Log - Related Links

Times and Time Zones

All times are in EDT time to prevent confusion due to time zone crossing. See the A6-ENG flight status page for this flight to view local times or setup timezone preferences in your user account.

Time Position Orientation Groundspeed Altitude Reporting Facility
EDT Latitude Longitude Course Direction KTS MPH feet Rate Location/Type
Fri 03:33:17 AM 25.2830 55.2560 237° Southwest 245 282 3,900  Level FlightAware ADS-B
Fri 03:33:47 AM 25.2630 55.2220 237° Southwest 280 322 4,600 1,650 Climbing FlightAware ADS-B
Fri 03:33:57 AM 25.2530 55.2120 222° Southwest 284 327 5,000 2,640 Climbing FlightAware ADS-B
Fri 03:34:12 AM 25.2340 55.2040 201° Southwest 298 343 5,700 3,000 Climbing FlightAware ADS-B
Fri 03:34:37 AM 25.2010 55.2140 165° South 297 342 7,000 3,000 Climbing FlightAware ADS-B
Fri 03:34:52 AM 25.1880 55.2280 136° Southeast 297 342 7,700 2,000 Climbing FlightAware ADS-B
Fri 03:35:22 AM 25.1610 55.2640 130° Southeast 325 374 8,500 1,467 Climbing FlightAware ADS-B
Fri 03:35:37 AM 25.1490 55.2850 122° Southeast 345 397 8,800 1,200 Climbing FlightAware ADS-B
Fri 03:36:02 AM 25.1440 55.3300 97° East 345 397 9,300 600 Climbing FlightAware ADS-B
Fri 03:36:27 AM 25.1290 55.3690 113° Southeast 345 397 9,300  Level FlightAware ADS-B
Fri 03:36:47 AM 25.1190 55.3960 112° Southeast 345 397 9,300  Level FlightAware ADS-B
Fri 03:37:17 AM 25.1030 55.4380 113° Southeast 345 397 9,300  Level FlightAware ADS-B
Fri 03:37:37 AM 25.0920 55.4650 114° Southeast 345 397 9,300  Level FlightAware ADS-B
Fri 03:40:00 AM 24.8606 55.3268 208° Southwest  Level Estimated
Fri 03:41:00 AM 24.7635 55.2689 208° Southwest  Level Estimated
Fri 03:42:00 AM 24.6664 55.2111 208° Southwest  Level Estimated
Fri 03:43:00 AM 24.5693 55.1535 208° Southwest  Level Estimated
Fri 03:44:00 AM 24.4721 55.0959 208° Southwest  Level Estimated
Fri 03:45:00 AM 24.3749 55.0384 208° Southwest  Level Estimated
Fri 03:46:00 AM 24.2777 54.9810 208° Southwest  Level Estimated
Fri 03:47:00 AM 24.1804 54.9237 208° Southwest  Level Estimated
Fri 03:48:00 AM 24.0832 54.8665 208° Southwest  Level Estimated
Fri 03:49:00 AM 23.9859 54.8093 208° Southwest  Level Estimated
Fri 03:50:00 AM 23.8886 54.7523 208° Southwest  Level Estimated
Fri 03:51:00 AM 23.7913 54.6953 208° Southwest  Level Estimated
Fri 03:52:00 AM 23.6939 54.6384 208° Southwest  Level Estimated
Fri 03:53:00 AM 23.5966 54.5816 208° Southwest  Level Estimated
Fri 03:54:00 AM 23.4992 54.5249 208° Southwest  Level Estimated
Fri 03:55:00 AM 23.4018 54.4682 208° Southwest  Level Estimated
Fri 03:56:00 AM 23.3043 54.4117 208° Southwest  Level Estimated
Fri 03:57:00 AM 23.2069 54.3552 208° Southwest  Level Estimated
Fri 03:58:00 AM 23.1094 54.2988 208° Southwest  Level Estimated
Fri 03:59:00 AM 23.0119 54.2425 208° Southwest  Level Estimated
Fri 04:00:00 AM 22.9144 54.1863 208° Southwest  Level Estimated
Fri 04:01:00 AM 22.8169 54.1302 208° Southwest  Level Estimated
Fri 04:02:00 AM 22.7193 54.0741 208° Southwest  Level Estimated
Fri 04:03:00 AM 22.6218 54.0181 208° Southwest  Level Estimated
Fri 04:04:00 AM 22.5242 53.9622 208° Southwest  Level Estimated
Fri 04:05:00 AM 22.4266 53.9064 208° Southwest  Level Estimated
Fri 04:06:00 AM 22.3290 53.8507 208° Southwest  Level Estimated
Fri 04:07:00 AM 22.2313 53.7950 208° Southwest  Level Estimated
Fri 04:08:00 AM 22.1336 53.7394 208° Southwest  Level Estimated
Fri 04:09:00 AM 22.0360 53.6839 208° Southwest  Level Estimated
Fri 04:10:00 AM 21.9383 53.6285 208° Southwest  Level Estimated
Fri 04:11:00 AM 21.8405 53.5731 208° Southwest  Level Estimated
Fri 04:12:00 AM 21.7428 53.5178 208° Southwest  Level Estimated
Fri 04:13:00 AM 21.6451 53.4626 208° Southwest  Level Estimated
Fri 04:14:00 AM 21.5473 53.4075 208° Southwest  Level Estimated
Fri 04:15:00 AM 21.4495 53.3524 208° Southwest  Level Estimated
Fri 04:16:00 AM 21.3517 53.2975 208° Southwest  Level Estimated
Fri 04:17:00 AM 21.2539 53.2425 208° Southwest  Level Estimated
Fri 04:18:00 AM 21.1560 53.1877 208° Southwest  Level Estimated
Fri 04:19:00 AM 21.0582 53.1329 208° Southwest  Level Estimated
Fri 04:20:00 AM 20.9603 53.0783 208° Southwest  Level Estimated
Fri 04:21:00 AM 20.8624 53.0236 208° Southwest  Level Estimated
Fri 04:22:00 AM 20.7645 52.9691 208° Southwest  Level Estimated
Fri 04:23:00 AM 20.6665 52.9146 207° Southwest  Level Estimated
Fri 04:24:00 AM 20.5686 52.8602 207° Southwest  Level Estimated
Fri 04:25:00 AM 20.4706 52.8059 207° Southwest  Level Estimated
Fri 04:26:00 AM 20.3726 52.7516 207° Southwest  Level Estimated
Fri 04:27:00 AM 20.2746 52.6974 207° Southwest  Level Estimated
Fri 04:28:00 AM 20.1766 52.6432 207° Southwest  Level Estimated
Fri 04:29:00 AM 20.0786 52.5892 207° Southwest  Level Estimated
Fri 04:30:00 AM 19.9805 52.5352 207° Southwest  Level Estimated
Fri 04:31:00 AM 19.8825 52.4813 207° Southwest  Level Estimated
Fri 04:32:00 AM 19.7844 52.4274 207° Southwest  Level Estimated
Fri 04:33:00 AM 19.6863 52.3736 207° Southwest  Level Estimated
Fri 04:34:00 AM 19.5882 52.3199 207° Southwest  Level Estimated
Fri 04:35:00 AM 19.4901 52.2662 207° Southwest  Level Estimated
Fri 04:36:00 AM 19.3919 52.2126 207° Southwest  Level Estimated
Fri 04:37:00 AM 19.2938 52.1590 207° Southwest  Level Estimated
Fri 04:38:00 AM 19.1956 52.1056 207° Southwest  Level Estimated
Fri 04:39:00 AM 19.0974 52.0522 207° Southwest  Level Estimated
Fri 04:40:00 AM 18.9992 51.9988 207° Southwest  Level Estimated
Fri 04:41:00 AM 18.9010 51.9455 207° Southwest  Level Estimated
Fri 04:42:00 AM 18.8027 51.8923 207° Southwest  Level Estimated
Fri 04:43:00 AM 18.7045 51.8392 207° Southwest  Level Estimated
Fri 04:44:00 AM 18.6062 51.7861 207° Southwest  Level Estimated
Fri 04:45:00 AM 18.5079 51.7330 207° Southwest  Level Estimated
Fri 04:46:00 AM 18.4096 51.6800 207° Southwest  Level Estimated
Fri 04:47:00 AM 18.3113 51.6271 207° Southwest  Level Estimated
Fri 04:48:00 AM 18.2130 51.5743 207° Southwest  Level Estimated
Fri 04:49:00 AM 18.1146 51.5215 207° Southwest  Level Estimated
Fri 04:50:00 AM 18.0163 51.4688 207° Southwest  Level Estimated
Fri 04:51:00 AM 17.9179 51.4161 207° Southwest  Level Estimated
Fri 04:52:00 AM 17.8195 51.3635 207° Southwest  Level Estimated
Fri 04:53:00 AM 17.7211 51.3109 207° Southwest  Level Estimated
Fri 04:54:00 AM 17.6227 51.2584 207° Southwest  Level Estimated
Fri 04:55:00 AM 17.5243 51.2060 207° Southwest  Level Estimated
Fri 04:56:00 AM 17.4258 51.1536 207° Southwest  Level Estimated
Fri 04:57:00 AM 17.3274 51.1012 207° Southwest  Level Estimated
Fri 04:58:00 AM 17.2289 51.0490 207° Southwest  Level Estimated
Fri 04:59:00 AM 17.1304 50.9967 207° Southwest  Level Estimated
Fri 05:00:00 AM 17.0320 50.9446 207° Southwest  Level Estimated
Fri 05:01:00 AM 16.9335 50.8925 207° Southwest  Level Estimated
Fri 05:02:00 AM 16.8349 50.8404 207° Southwest  Level Estimated
Fri 05:03:00 AM 16.7364 50.7884 207° Southwest  Level Estimated
Fri 05:04:00 AM 16.6378 50.7365 207° Southwest  Level Estimated
Fri 05:05:00 AM 16.5393 50.6846 207° Southwest  Level Estimated
Fri 05:06:00 AM 16.4407 50.6328 207° Southwest  Level Estimated
Fri 05:07:00 AM 16.3421 50.5810 207° Southwest  Level Estimated
Fri 05:08:00 AM 16.2435 50.5292 207° Southwest  Level Estimated
Fri 05:09:00 AM 16.1449 50.4775 207° Southwest  Level Estimated
Fri 05:10:00 AM 16.0463 50.4259 207° Southwest  Level Estimated
Fri 05:11:00 AM 15.9477 50.3743 207° Southwest  Level Estimated
Fri 05:12:00 AM 15.8490 50.3228 207° Southwest  Level Estimated
Fri 05:13:00 AM 15.7504 50.2713 207° Southwest  Level Estimated
Fri 05:14:00 AM 15.6517 50.2199 207° Southwest  Level Estimated
Fri 05:15:00 AM 15.5530 50.1685 207° Southwest  Level Estimated
Fri 05:16:00 AM 15.4543 50.1172 207° Southwest  Level Estimated
Fri 05:17:00 AM 15.3556 50.0659 207° Southwest  Level Estimated
Fri 05:18:00 AM 15.2569 50.0147 207° Southwest  Level Estimated
Fri 05:19:00 AM 15.1582 49.9635 207° Southwest  Level Estimated
Fri 05:20:00 AM 15.0594 49.9123 207° Southwest  Level Estimated
Fri 05:21:00 AM 14.9607 49.8613 207° Southwest  Level Estimated
Fri 05:22:00 AM 14.8619 49.8102 207° Southwest  Level Estimated
Fri 05:23:00 AM 14.7631 49.7592 207° Southwest  Level Estimated
Fri 05:24:00 AM 14.6643 49.7083 207° Southwest  Level Estimated
Fri 05:25:00 AM 14.5655 49.6574 207° Southwest  Level Estimated
Fri 05:26:00 AM 14.4667 49.6065 206° Southwest  Level Estimated
Fri 05:27:00 AM 14.3679 49.5557 206° Southwest  Level Estimated
Fri 05:28:00 AM 14.2691 49.5049 206° Southwest  Level Estimated
Fri 05:29:00 AM 14.1702 49.4542 206° Southwest  Level Estimated
Fri 05:30:00 AM 14.0714 49.4035 206° Southwest  Level Estimated
Fri 05:31:00 AM 13.9725 49.3529 206° Southwest  Level Estimated
Fri 05:32:00 AM 13.8737 49.3023 206° Southwest  Level Estimated
Fri 05:33:00 AM 13.7748 49.2517 206° Southwest  Level Estimated
Fri 05:34:00 AM 13.6759 49.2012 206° Southwest  Level Estimated
Fri 05:35:00 AM 13.5770 49.1508 206° Southwest  Level Estimated
Fri 05:36:00 AM 13.4781 49.1003 206° Southwest  Level Estimated
Fri 05:37:00 AM 13.3792 49.0500 206° Southwest  Level Estimated
Fri 05:38:00 AM 13.2802 48.9996 206° Southwest  Level Estimated
Fri 05:39:00 AM 13.1813 48.9493 206° Southwest  Level Estimated
Fri 05:40:00 AM 13.0823 48.8991 206° Southwest  Level Estimated
Fri 05:41:00 AM 12.9834 48.8489 206° Southwest  Level Estimated
Fri 05:42:00 AM 12.8844 48.7987 206° Southwest  Level Estimated
Fri 05:43:00 AM 12.7854 48.7485 206° Southwest  Level Estimated
Fri 05:44:00 AM 12.6865 48.6984 206° Southwest  Level Estimated
Fri 05:45:00 AM 12.5875 48.6484 206° Southwest  Level Estimated
Fri 05:46:00 AM 12.4884 48.5984 206° Southwest  Level Estimated
Fri 05:47:00 AM 12.3894 48.5484 206° Southwest  Level Estimated
Fri 05:48:00 AM 12.2904 48.4984 206° Southwest  Level Estimated
Fri 05:49:00 AM 12.1913 48.4485 206° Southwest  Level Estimated
Fri 05:50:00 AM 12.0923 48.3987 206° Southwest  Level Estimated
Fri 05:51:00 AM 11.9932 48.3488 206° Southwest  Level Estimated
Fri 05:52:00 AM 11.8942 48.2990 206° Southwest  Level Estimated
Fri 05:53:00 AM 11.7951 48.2493 206° Southwest  Level Estimated
Fri 05:54:00 AM 11.6960 48.1995 206° Southwest  Level Estimated
Fri 05:55:00 AM 11.5969 48.1498 206° Southwest  Level Estimated
Fri 05:56:00 AM 11.4978 48.1002 206° Southwest  Level Estimated
Fri 05:57:00 AM 11.3987 48.0506 206° Southwest  Level Estimated
Fri 05:58:00 AM 11.2996 48.0010 206° Southwest  Level Estimated
Fri 05:59:00 AM 11.2005 47.9515 206° Southwest  Level Estimated
Fri 06:00:00 AM 11.1014 47.9019 206° Southwest  Level Estimated
Fri 06:01:00 AM 11.0022 47.8525 206° Southwest  Level Estimated
Fri 06:02:00 AM 10.9031 47.8030 206° Southwest  Level Estimated
Fri 06:03:00 AM 10.8039 47.7536 206° Southwest  Level Estimated
Fri 06:04:00 AM 10.7048 47.7042 206° Southwest  Level Estimated
Fri 06:05:00 AM 10.6056 47.6549 206° Southwest  Level Estimated
Fri 06:06:00 AM 10.5064 47.6055 206° Southwest  Level Estimated
Fri 06:07:00 AM 10.4072 47.5562 206° Southwest  Level Estimated
Fri 06:08:00 AM 10.3080 47.5070 206° Southwest  Level Estimated
Fri 06:09:00 AM 10.2088 47.4578 206° Southwest  Level Estimated
Fri 06:10:00 AM 10.1096 47.4086 206° Southwest  Level Estimated
Fri 06:11:00 AM 10.0104 47.3594 206° Southwest  Level Estimated
Fri 06:12:00 AM 9.9112 47.3103 206° Southwest  Level Estimated
Fri 06:13:00 AM 9.8119 47.2612 206° Southwest  Level Estimated
Fri 06:14:00 AM 9.7127 47.2121 206° Southwest  Level Estimated
Fri 06:15:00 AM 9.6135 47.1631 206° Southwest  Level Estimated
Fri 06:16:00 AM 9.5142 47.1140 206° Southwest  Level Estimated
Fri 06:17:00 AM 9.4149 47.0650 206° Southwest  Level Estimated
Fri 06:18:00 AM 9.3157 47.0161 206° Southwest  Level Estimated
Fri 06:19:00 AM 9.2164 46.9672 206° Southwest  Level Estimated
Fri 06:20:00 AM 9.1171 46.9183 206° Southwest  Level Estimated
Fri 06:21:00 AM 9.0178 46.8694 206° Southwest  Level Estimated
Fri 06:22:00 AM 8.9185 46.8205 206° Southwest  Level Estimated
Fri 06:23:00 AM 8.8192 46.7717 206° Southwest  Level Estimated
Fri 06:24:00 AM 8.7199 46.7229 206° Southwest  Level Estimated
Fri 06:25:00 AM 8.6206 46.6741 206° Southwest  Level Estimated
Fri 06:26:00 AM 8.5213 46.6254 206° Southwest  Level Estimated
Fri 06:27:00 AM 8.4220 46.5767 206° Southwest  Level Estimated
Fri 06:28:00 AM 8.3227 46.5280 206° Southwest  Level Estimated
Fri 06:29:00 AM 8.2233 46.4793 206° Southwest  Level Estimated
Fri 06:30:00 AM 8.1240 46.4306 206° Southwest  Level Estimated
Fri 06:31:00 AM 8.0246 46.3820 206° Southwest  Level Estimated
Fri 06:32:00 AM 7.9253 46.3334 206° Southwest  Level Estimated
Fri 06:33:00 AM 7.8259 46.2849 206° Southwest  Level Estimated
Fri 06:34:00 AM 7.7266 46.2363 206° Southwest  Level Estimated
Fri 06:35:00 AM 7.6272 46.1878 206° Southwest  Level Estimated
Fri 06:36:00 AM 7.5278 46.1393 206° Southwest  Level Estimated
Fri 06:37:00 AM 7.4285 46.0908 206° Southwest  Level Estimated
Fri 06:38:00 AM 7.3291 46.0423 206° Southwest  Level Estimated
Fri 06:39:00 AM 7.2297 45.9939 206° Southwest  Level Estimated
Fri 06:40:00 AM 7.1303 45.9455 206° Southwest  Level Estimated
Fri 06:41:00 AM 7.0309 45.8971 206° Southwest  Level Estimated
Fri 06:42:00 AM 6.9315 45.8487 206° Southwest  Level Estimated
Fri 06:43:00 AM 6.8321 45.8003 206° Southwest  Level Estimated
Fri 06:44:00 AM 6.7326 45.7520 206° Southwest  Level Estimated
Fri 06:45:00 AM 6.6332 45.7037 206° Southwest  Level Estimated
Fri 06:46:00 AM 6.5338 45.6554 206° Southwest  Level Estimated
Fri 06:47:00 AM 6.4344 45.6071 206° Southwest  Level Estimated
Fri 06:48:00 AM 6.3349 45.5588 206° Southwest  Level Estimated
Fri 06:49:00 AM 6.2355 45.5106 206° Southwest  Level Estimated
Fri 06:50:00 AM 6.1361 45.4624 206° Southwest  Level Estimated
Fri 06:51:00 AM 6.0366 45.4142 206° Southwest  Level Estimated
Fri 06:52:00 AM 5.9372 45.3660 206° Southwest  Level Estimated
Fri 06:53:00 AM 5.8377 45.3178 206° Southwest  Level Estimated
Fri 06:54:00 AM 5.7382 45.2696 206° Southwest  Level Estimated
Fri 06:55:00 AM 5.6388 45.2215 206° Southwest  Level Estimated
Fri 06:56:00 AM 5.5393 45.1734 206° Southwest  Level Estimated
Fri 06:57:00 AM 5.4398 45.1253 206° Southwest  Level Estimated
Fri 06:58:00 AM 5.3404 45.0772 206° Southwest  Level Estimated
Fri 06:59:00 AM 5.2409 45.0291 206° Southwest  Level Estimated
Fri 07:00:00 AM 5.1414 44.9811 206° Southwest  Level Estimated
Fri 07:01:00 AM 5.0419 44.9330 206° Southwest  Level Estimated
Fri 07:02:00 AM 4.9424 44.8850 206° Southwest  Level Estimated
Fri 07:03:00 AM 4.8429 44.8370 206° Southwest  Level Estimated
Fri 07:04:00 AM 4.7435 44.7890 206° Southwest  Level Estimated
Fri 07:05:00 AM 4.6439 44.7410 206° Southwest  Level Estimated
Fri 07:06:00 AM 4.5444 44.6930 206° Southwest  Level Estimated
Fri 07:07:00 AM 4.4449 44.6451 206° Southwest  Level Estimated
Fri 07:08:00 AM 4.3454 44.5971 206° Southwest  Level Estimated
Fri 07:09:00 AM 4.2459 44.5492 206° Southwest  Level Estimated
Fri 07:10:00 AM 4.1464 44.5013 206° Southwest  Level Estimated
Fri 07:11:00 AM 4.0469 44.4534 206° Southwest  Level Estimated
Fri 07:12:00 AM 3.9474 44.4055 206° Southwest  Level Estimated
Fri 07:13:00 AM 3.8479 44.3576 206° Southwest  Level Estimated
Fri 07:14:00 AM 3.7483 44.3097 206° Southwest  Level Estimated
Fri 07:15:00 AM 3.6488 44.2618 206° Southwest  Level Estimated
Fri 07:16:00 AM 3.5493 44.2140 206° Southwest  Level Estimated
Fri 07:17:00 AM 3.4497 44.1662 206° Southwest  Level Estimated
Fri 07:18:00 AM 3.3502 44.1183 206° Southwest  Level Estimated
Fri 07:19:00 AM 3.2506 44.0705 206° Southwest  Level Estimated
Fri 07:20:00 AM 3.1511 44.0227 206° Southwest  Level Estimated
Fri 07:21:00 AM 3.0516 43.9749 206° Southwest  Level Estimated
Fri 07:22:00 AM 2.9520 43.9271 206° Southwest  Level Estimated
Fri 07:23:00 AM 2.8525 43.8793 206° Southwest  Level Estimated
Fri 07:24:00 AM 2.7529 43.8315 206° Southwest  Level Estimated
Fri 07:25:00 AM 2.6534 43.7838 206° Southwest  Level Estimated
Fri 07:26:00 AM 2.5538 43.7360 206° Southwest  Level Estimated
Fri 07:27:00 AM 2.4543 43.6883 206° Southwest  Level Estimated
Fri 07:28:00 AM 2.3547 43.6405 206° Southwest  Level Estimated
Fri 07:29:00 AM 2.2552 43.5928 206° Southwest  Level Estimated
Fri 07:30:00 AM 2.1556 43.5450 206° Southwest  Level Estimated
Fri 07:31:00 AM 2.0560 43.4973 206° Southwest  Level Estimated
Fri 07:32:00 AM 1.9565 43.4496 206° Southwest  Level Estimated
Fri 07:33:00 AM 1.8569 43.4019 206° Southwest  Level Estimated
Fri 07:34:00 AM 1.7574 43.3542 206° Southwest  Level Estimated
Fri 07:35:00 AM 1.6578 43.3064 206° Southwest  Level Estimated
Fri 07:36:00 AM 1.5582 43.2588 206° Southwest  Level Estimated
Fri 07:37:00 AM 1.4586 43.2110 206° Southwest  Level Estimated
Fri 07:38:00 AM 1.3591 43.1634 206° Southwest  Level Estimated
Fri 07:39:00 AM 1.2595 43.1157 206° Southwest  Level Estimated
Fri 07:40:00 AM 1.1599 43.0680 206° Southwest  Level Estimated
Fri 07:41:00 AM 1.0604 43.0203 206° Southwest  Level Estimated
Fri 07:42:00 AM 0.9608 42.9726 206° Southwest  Level Estimated
Fri 07:43:00 AM 0.8612 42.9249 206° Southwest  Level Estimated
Fri 07:44:00 AM 0.7617 42.8773 206° Southwest  Level Estimated
Fri 07:45:00 AM 0.6621 42.8296 206° Southwest  Level Estimated
Fri 07:46:00 AM 0.5625 42.7819 206° Southwest  Level Estimated
Fri 07:47:00 AM 0.4629 42.7343 206° Southwest  Level Estimated
Fri 07:48:00 AM 0.3634 42.6866 206° Southwest  Level Estimated
Fri 07:49:00 AM 0.2638 42.6389 206° Southwest  Level Estimated
Fri 07:50:00 AM 0.1642 42.5913 206° Southwest  Level Estimated
Fri 07:51:00 AM 0.0646 42.5436 206° Southwest  Level Estimated
Fri 07:52:00 AM -0.0350 42.4959 206° Southwest  Level Estimated
Fri 07:53:00 AM -0.1346 42.4483 206° Southwest  Level Estimated
Fri 07:54:00 AM -0.2341 42.4006 206° Southwest  Level Estimated
Fri 07:55:00 AM -0.3337 42.3530 206° Southwest  Level Estimated
Fri 07:56:00 AM -0.4333 42.3053 206° Southwest  Level Estimated
Fri 07:57:00 AM -0.5329 42.2576 206° Southwest  Level Estimated
Fri 07:58:00 AM -0.6324 42.2099 206° Southwest  Level Estimated
Fri 07:59:00 AM -0.7320 42.1623 206° Southwest  Level Estimated
Fri 08:00:00 AM -0.8316 42.1146 206° Southwest  Level Estimated
Fri 08:01:00 AM -0.9312 42.0669 206° Southwest  Level Estimated
Fri 08:02:00 AM -1.0307 42.0192 206° Southwest  Level Estimated
Fri 08:03:00 AM -1.1303 41.9716 206° Southwest  Level Estimated
Fri 08:04:00 AM -1.2299 41.9239 206° Southwest  Level Estimated
Fri 08:05:00 AM -1.3294 41.8762 206° Southwest  Level Estimated
Fri 08:06:00 AM -1.4290 41.8285 206° Southwest  Level Estimated
Fri 08:07:00 AM -1.5286 41.7808 206° Southwest  Level Estimated
Fri 08:08:00 AM -1.6281 41.7331 206° Southwest  Level Estimated
Fri 08:09:00 AM -1.7277 41.6854 206° Southwest  Level Estimated
Fri 08:10:00 AM -1.8273 41.6377 206° Southwest  Level Estimated
Fri 08:11:00 AM -1.9268 41.5900 206° Southwest  Level Estimated
Fri 08:12:00 AM -2.0264 41.5423 206° Southwest  Level Estimated
Fri 08:13:00 AM -2.1260 41.4945 206° Southwest  Level Estimated
Fri 08:14:00 AM -2.2255 41.4468 206° Southwest  Level Estimated
Fri 08:15:00 AM -2.3251 41.3991 206° Southwest  Level Estimated
Fri 08:16:00 AM -2.4246 41.3513 206° Southwest  Level Estimated
Fri 08:17:00 AM -2.5242 41.3036 206° Southwest  Level Estimated
Fri 08:18:00 AM -2.6238 41.2558 206° Southwest  Level Estimated
Fri 08:19:00 AM -2.7233 41.2080 206° Southwest  Level Estimated
Fri 08:20:00 AM -2.8229 41.1603 206° Southwest  Level Estimated
Fri 08:21:00 AM -2.9224 41.1125 206° Southwest  Level Estimated
Fri 08:22:00 AM -3.0220 41.0647 206° Southwest  Level Estimated
Fri 08:23:00 AM -3.1215 41.0169 206° Southwest  Level Estimated
Fri 08:24:00 AM -3.2210 40.9691 206° Southwest  Level Estimated
Fri 08:25:00 AM -3.3206 40.9212 206° Southwest  Level Estimated
Fri 08:26:00 AM -3.4201 40.8734 206° Southwest  Level Estimated
Fri 08:27:00 AM -3.5196 40.8256 206° Southwest  Level Estimated
Fri 08:28:00 AM -3.6192 40.7777 206° Southwest  Level Estimated
Fri 08:29:00 AM -3.7187 40.7299 206° Southwest  Level Estimated
Fri 08:30:00 AM -3.8182 40.6820 206° Southwest  Level Estimated
Fri 08:31:00 AM -3.9178 40.6341 206° Southwest  Level Estimated
Fri 08:32:00 AM -4.0173 40.5862 206° Southwest  Level Estimated
Fri 08:33:00 AM -4.1168 40.5383 206° Southwest  Level Estimated
Fri 08:34:00 AM -4.2163 40.4904 206° Southwest  Level Estimated
Fri 08:35:00 AM -4.3158 40.4425 206° Southwest  Level Estimated
Fri 08:36:00 AM -4.4153 40.3945 206° Southwest  Level Estimated

Login

Don't have an account? Register now (free) for customized features, flight alerts, and more!